sensor_id;sensor_type;location;lat;lon;timestamp;pressure;altitude;pressure_sealevel;temperature;humidity
19210;BME280;9738;51.654;14.238;2023-02-21T00:01:54;100187.88;;;8.53;100.00
19210;BME280;9738;51.654;14.238;2023-02-21T00:04:39;100194.72;;;8.46;100.00
19210;BME280;9738;51.654;14.238;2023-02-21T00:07:24;100194.88;;;8.44;100.00
19210;BME280;9738;51.654;14.238;2023-02-21T00:10:12;100199.50;;;8.42;100.00
19210;BME280;9738;51.654;14.238;2023-02-21T00:12:57;100209.75;;;8.37;100.00
19210;BME280;9738;51.654;14.238;2023-02-21T00:15:42;100200.09;;;8.36;100.00
19210;BME280;9738;51.654;14.238;2023-02-21T00:18:27;100210.97;;;8.33;100.00
19210;BME280;9738;51.654;14.238;2023-02-21T00:21:12;100210.28;;;8.31;100.00
19210;BME280;9738;51.654;14.238;2023-02-21T00:23:56;100192.50;;;8.31;100.00
19210;BME280;9738;51.654;14.238;2023-02-21T00:26:41;100193.78;;;8.27;100.00
19210;BME280;9738;51.654;14.238;2023-02-21T00:29:26;100194.88;;;8.25;100.00
19210;BME280;9738;51.654;14.238;2023-02-21T00:32:11;100197.53;;;8.25;100.00
19210;BME280;9738;51.654;14.238;2023-02-21T00:34:55;100197.41;;;8.26;100.00
19210;BME280;9738;51.654;14.238;2023-02-21T00:37:40;100202.19;;;8.23;100.00
19210;BME280;9738;51.654;14.238;2023-02-21T00:40:25;100198.81;;;8.30;100.00
19210;BME280;9738;51.654;14.238;2023-02-21T00:43:10;100191.81;;;8.29;100.00
19210;BME280;9738;51.654;14.238;2023-02-21T00:45:55;100192.66;;;8.30;100.00
19210;BME280;9738;51.654;14.238;2023-02-21T00:48:39;100192.34;;;8.33;100.00
19210;BME280;9738;51.654;14.238;2023-02-21T00:51:24;100185.34;;;8.32;100.00
19210;BME280;9738;51.654;14.238;2023-02-21T00:54:09;100191.66;;;8.31;100.00
19210;BME280;9738;51.654;14.238;2023-02-21T00:56:53;100195.00;;;8.33;100.00
19210;BME280;9738;51.654;14.238;2023-02-21T00:59:38;100195.44;;;8.28;100.00
19210;BME280;9738;51.654;14.238;2023-02-21T01:02:22;100192.66;;;8.30;100.00
19210;BME280;9738;51.654;14.238;2023-02-21T01:05:07;100187.75;;;8.35;100.00
19210;BME280;9738;51.654;14.238;2023-02-21T01:07:54;100184.25;;;8.34;100.00
19210;BME280;9738;51.654;14.238;2023-02-21T01:10:38;100178.78;;;8.36;100.00
19210;BME280;9738;51.654;14.238;2023-02-21T01:13:23;100176.13;;;8.36;100.00
19210;BME280;9738;51.654;14.238;2023-02-21T01:16:08;100182.28;;;8.36;100.00
19210;BME280;9738;51.654;14.238;2023-02-21T01:18:52;100178.66;;;8.28;100.00
19210;BME280;9738;51.654;14.238;2023-02-21T01:21:37;100185.38;;;8.22;100.00
19210;BME280;9738;51.654;14.238;2023-02-21T01:24:22;100180.78;;;8.15;100.00
19210;BME280;9738;51.654;14.238;2023-02-21T01:27:07;100194.91;;;8.15;100.00
19210;BME280;9738;51.654;14.238;2023-02-21T01:29:51;100180.06;;;8.12;100.00
19210;BME280;9738;51.654;14.238;2023-02-21T01:32:36;100175.72;;;8.11;100.00
19210;BME280;9738;51.654;14.238;2023-02-21T01:35:20;100168.59;;;8.02;100.00
19210;BME280;9738;51.654;14.238;2023-02-21T01:38:05;100164.69;;;7.97;100.00
19210;BME280;9738;51.654;14.238;2023-02-21T01:40:50;100158.78;;;7.93;100.00
19210;BME280;9738;51.654;14.238;2023-02-21T01:43:35;100165.66;;;7.86;100.00
19210;BME280;9738;51.654;14.238;2023-02-21T01:46:20;100153.34;;;7.85;100.00
19210;BME280;9738;51.654;14.238;2023-02-21T01:49:11;100152.09;;;7.79;100.00
19210;BME280;9738;51.654;14.238;2023-02-21T01:51:59;100154.19;;;7.85;100.00
19210;BME280;9738;51.654;14.238;2023-02-21T01:54:49;100140.06;;;7.85;100.00
19210;BME280;9738;51.654;14.238;2023-02-21T01:57:36;100136.16;;;7.89;100.00
19210;BME280;9738;51.654;14.238;2023-02-21T02:00:23;100142.16;;;7.91;100.00
19210;BME280;9738;51.654;14.238;2023-02-21T02:03:10;100135.00;;;7.92;100.00
19210;BME280;9738;51.654;14.238;2023-02-21T02:05:59;100122.56;;;7.92;100.00
19210;BME280;9738;51.654;14.238;2023-02-21T02:08:44;100137.53;;;7.93;100.00
19210;BME280;9738;51.654;14.238;2023-02-21T02:12:02;100132.06;;;7.95;100.00
19210;BME280;9738;51.654;14.238;2023-02-21T02:31:59;100117.78;;;8.05;100.00
19210;BME280;9738;51.654;14.238;2023-02-21T02:40:18;100098.59;;;8.11;100.00
19210;BME280;9738;51.654;14.238;2023-02-21T02:45:42;100098.31;;;8.15;100.00
19210;BME280;9738;51.654;14.238;2023-02-21T02:48:16;100087.53;;;8.16;100.00
19210;BME280;9738;51.654;14.238;2023-02-21T02:50:47;100096.50;;;8.15;100.00
19210;BME280;9738;51.654;14.238;2023-02-21T02:53:20;100103.31;;;8.18;100.00
19210;BME280;9738;51.654;14.238;2023-02-21T02:55:51;100096.03;;;8.20;100.00
19210;BME280;9738;51.654;14.238;2023-02-21T02:58:19;100084.56;;;8.19;100.00
19210;BME280;9738;51.654;14.238;2023-02-21T03:00:59;100084.13;;;8.24;100.00
19210;BME280;9738;51.654;14.238;2023-02-21T03:06:29;100089.59;;;8.22;100.00
19210;BME280;9738;51.654;14.238;2023-02-21T03:11:52;100081.31;;;8.25;100.00
19210;BME280;9738;51.654;14.238;2023-02-21T03:14:24;100084.13;;;8.24;100.00
19210;BME280;9738;51.654;14.238;2023-02-21T03:16:56;100073.63;;;8.22;100.00
19210;BME280;9738;51.654;14.238;2023-02-21T03:19:32;100061.44;;;8.20;100.00
19210;BME280;9738;51.654;14.238;2023-02-21T03:22:01;100066.91;;;8.18;100.00
19210;BME280;9738;51.654;14.238;2023-02-21T03:24:30;100064.25;;;8.18;100.00
19210;BME280;9738;51.654;14.238;2023-02-21T03:26:59;100076.56;;;8.19;100.00
19210;BME280;9738;51.654;14.238;2023-02-21T03:29:27;100084.03;;;8.16;100.00
19210;BME280;9738;51.654;14.238;2023-02-21T03:32:01;100084.72;;;8.18;100.00
19210;BME280;9738;51.654;14.238;2023-02-21T03:34:38;100090.03;;;8.18;100.00
19210;BME280;9738;51.654;14.238;2023-02-21T03:37:06;100087.38;;;8.18;100.00
19210;BME280;9738;51.654;14.238;2023-02-21T03:39:32;100082.63;;;8.11;100.00
19210;BME280;9738;51.654;14.238;2023-02-21T03:41:58;100072.28;;;8.08;100.00
19210;BME280;9738;51.654;14.238;2023-02-21T03:44:24;100088.78;;;8.12;100.00
19210;BME280;9738;51.654;14.238;2023-02-21T03:46:50;100082.94;;;8.08;100.00
19210;BME280;9738;51.654;14.238;2023-02-21T03:49:16;100091.19;;;8.05;100.00
19210;BME280;9738;51.654;14.238;2023-02-21T03:51:42;100095.81;;;8.03;100.00
19210;BME280;9738;51.654;14.238;2023-02-21T03:54:07;100085.03;;;8.05;100.00
19210;BME280;9738;51.654;14.238;2023-02-21T03:56:34;100086.53;;;8.07;100.00
19210;BME280;9738;51.654;14.238;2023-02-21T03:59:00;100089.19;;;8.07;100.00
19210;BME280;9738;51.654;14.238;2023-02-21T04:01:25;100075.91;;;8.07;100.00
19210;BME280;9738;51.654;14.238;2023-02-21T04:03:52;100089.91;;;8.09;100.00
19210;BME280;9738;51.654;14.238;2023-02-21T04:06:17;100089.75;;;8.11;100.00
19210;BME280;9738;51.654;14.238;2023-02-21T04:08:43;100085.84;;;8.15;100.00
19210;BME280;9738;51.654;14.238;2023-02-21T04:11:09;100076.03;;;8.16;100.00
19210;BME280;9738;51.654;14.238;2023-02-21T04:13:35;100079.78;;;8.23;100.00
19210;BME280;9738;51.654;14.238;2023-02-21T04:16:01;100080.78;;;8.22;100.00
19210;BME280;9738;51.654;14.238;2023-02-21T04:18:27;100083.28;;;8.23;100.00
19210;BME280;9738;51.654;14.238;2023-02-21T04:20:53;100092.78;;;8.26;100.00
19210;BME280;9738;51.654;14.238;2023-02-21T04:23:19;100079.63;;;8.34;100.00
19210;BME280;9738;51.654;14.238;2023-02-21T04:25:47;100084.25;;;8.42;100.00
19210;BME280;9738;51.654;14.238;2023-02-21T04:28:13;100086.75;;;8.43;100.00
19210;BME280;9738;51.654;14.238;2023-02-21T04:30:39;100080.84;;;8.49;100.00
19210;BME280;9738;51.654;14.238;2023-02-21T04:33:05;100084.19;;;8.51;100.00
19210;BME280;9738;51.654;14.238;2023-02-21T04:35:31;100091.06;;;8.54;100.00
19210;BME280;9738;51.654;14.238;2023-02-21T04:37:56;100094.56;;;8.54;100.00
19210;BME280;9738;51.654;14.238;2023-02-21T04:40:23;100092.16;;;8.61;100.00
19210;BME280;9738;51.654;14.238;2023-02-21T04:42:48;100103.63;;;8.61;100.00
19210;BME280;9738;51.654;14.238;2023-02-21T04:45:14;100103.63;;;8.61;100.00
19210;BME280;9738;51.654;14.238;2023-02-21T04:47:40;100094.38;;;8.65;100.00
19210;BME280;9738;51.654;14.238;2023-02-21T04:50:06;100096.03;;;8.66;100.00
19210;BME280;9738;51.654;14.238;2023-02-21T04:52:32;100086.91;;;8.69;100.00
19210;BME280;9738;51.654;14.238;2023-02-21T04:54:58;100094.47;;;8.74;100.00
19210;BME280;9738;51.654;14.238;2023-02-21T04:57:24;100087.16;;;8.76;100.00
19210;BME280;9738;51.654;14.238;2023-02-21T04:59:57;100094.03;;;8.78;100.00
19210;BME280;9738;51.654;14.238;2023-02-21T05:02:25;100092.88;;;8.81;100.00
19210;BME280;9738;51.654;14.238;2023-02-21T05:04:51;100094.28;;;8.85;100.00
19210;BME280;9738;51.654;14.238;2023-02-21T05:07:17;100092.28;;;8.87;100.00
19210;BME280;9738;51.654;14.238;2023-02-21T05:09:44;100085.97;;;8.88;100.00
19210;BME280;9738;51.654;14.238;2023-02-21T05:12:09;100088.63;;;8.88;100.00
19210;BME280;9738;51.654;14.238;2023-02-21T05:14:37;100099.00;;;8.91;100.00
19210;BME280;9738;51.654;14.238;2023-02-21T05:17:04;100090.31;;;8.89;100.00
19210;BME280;9738;51.654;14.238;2023-02-21T05:19:30;100101.13;;;8.87;100.00
19210;BME280;9738;51.654;14.238;2023-02-21T05:21:58;100103.63;;;8.89;100.00
19210;BME280;9738;51.654;14.238;2023-02-21T05:24:26;100091.91;;;8.82;100.00
19210;BME280;9738;51.654;14.238;2023-02-21T05:26:52;100114.19;;;8.81;100.00
19210;BME280;9738;51.654;14.238;2023-02-21T05:29:18;100116.84;;;8.81;100.00
19210;BME280;9738;51.654;14.238;2023-02-21T05:31:45;100117.44;;;8.75;100.00
19210;BME280;9738;51.654;14.238;2023-02-21T05:34:11;100117.75;;;8.72;100.00
19210;BME280;9738;51.654;14.238;2023-02-21T05:36:37;100114.38;;;8.70;100.00
19210;BME280;9738;51.654;14.238;2023-02-21T05:39:04;100120.00;;;8.66;100.00
19210;BME280;9738;51.654;14.238;2023-02-21T05:41:30;100129.25;;;8.62;100.00
19210;BME280;9738;51.654;14.238;2023-02-21T05:43:56;100127.59;;;8.61;100.00
19210;BME280;9738;51.654;14.238;2023-02-21T05:46:28;100123.53;;;8.57;100.00
19210;BME280;9738;51.654;14.238;2023-02-21T05:48:55;100136.84;;;8.57;100.00
19210;BME280;9738;51.654;14.238;2023-02-21T05:51:21;100133.78;;;8.52;100.00
19210;BME280;9738;51.654;14.238;2023-02-21T05:53:48;100132.94;;;8.52;100.00
19210;BME280;9738;51.654;14.238;2023-02-21T05:56:14;100126.25;;;8.48;100.00
19210;BME280;9738;51.654;14.238;2023-02-21T05:58:40;100120.38;;;8.44;100.00
19210;BME280;9738;51.654;14.238;2023-02-21T06:01:07;100126.81;;;8.42;100.00
19210;BME280;9738;51.654;14.238;2023-02-21T06:03:32;100134.97;;;8.40;100.00
19210;BME280;9738;51.654;14.238;2023-02-21T06:06:00;100138.31;;;8.42;100.00
19210;BME280;9738;51.654;14.238;2023-02-21T06:08:26;100138.56;;;8.39;100.00
19210;BME280;9738;51.654;14.238;2023-02-21T06:10:52;100142.06;;;8.39;100.00
19210;BME280;9738;51.654;14.238;2023-02-21T06:13:18;100143.63;;;8.42;100.00
19210;BME280;9738;51.654;14.238;2023-02-21T06:15:45;100143.78;;;8.41;100.00
19210;BME280;9738;51.654;14.238;2023-02-21T06:18:14;100140.56;;;8.37;100.00
19210;BME280;9738;51.654;14.238;2023-02-21T06:20:40;100141.78;;;8.33;100.00
19210;BME280;9738;51.654;14.238;2023-02-21T06:23:07;100145.44;;;8.32;100.00
19210;BME280;9738;51.654;14.238;2023-02-21T06:25:33;100147.25;;;8.31;100.00
19210;BME280;9738;51.654;14.238;2023-02-21T06:27:58;100143.91;;;8.29;100.00
19210;BME280;9738;51.654;14.238;2023-02-21T06:30:25;100148.81;;;8.34;100.00
19210;BME280;9738;51.654;14.238;2023-02-21T06:32:50;100158.31;;;8.27;100.00
19210;BME280;9738;51.654;14.238;2023-02-21T06:35:16;100153.16;;;8.25;100.00
19210;BME280;9738;51.654;14.238;2023-02-21T06:37:42;100153.59;;;8.21;100.00
19210;BME280;9738;51.654;14.238;2023-02-21T06:40:08;100156.25;;;8.21;100.00
19210;BME280;9738;51.654;14.238;2023-02-21T06:42:34;100168.84;;;8.19;100.00
19210;BME280;9738;51.654;14.238;2023-02-21T06:45:02;100169.41;;;8.22;100.00
19210;BME280;9738;51.654;14.238;2023-02-21T06:47:28;100179.50;;;8.19;100.00
19210;BME280;9738;51.654;14.238;2023-02-21T06:49:53;100185.38;;;8.22;100.00
19210;BME280;9738;51.654;14.238;2023-02-21T06:52:20;100181.72;;;8.23;100.00
19210;BME280;9738;51.654;14.238;2023-02-21T06:54:49;100184.38;;;8.23;100.00
19210;BME280;9738;51.654;14.238;2023-02-21T06:57:14;100201.50;;;8.21;100.00
19210;BME280;9738;51.654;14.238;2023-02-21T06:59:41;100197.84;;;8.22;100.00
19210;BME280;9738;51.654;14.238;2023-02-21T07:02:14;100202.19;;;8.23;100.00
19210;BME280;9738;51.654;14.238;2023-02-21T07:04:44;100206.25;;;8.17;100.00
19210;BME280;9738;51.654;14.238;2023-02-21T07:07:10;100210.03;;;8.15;100.00
19210;BME280;9738;51.654;14.238;2023-02-21T07:09:35;100213.53;;;8.15;100.00
19210;BME280;9738;51.654;14.238;2023-02-21T07:12:02;100225.00;;;8.16;100.00
19210;BME280;9738;51.654;14.238;2023-02-21T07:14:28;100223.88;;;8.18;100.00
19210;BME280;9738;51.654;14.238;2023-02-21T07:16:54;100234.25;;;8.21;100.00
19210;BME280;9738;51.654;14.238;2023-02-21T07:19:21;100229.88;;;8.20;100.00
19210;BME280;9738;51.654;14.238;2023-02-21T07:21:47;100232.28;;;8.23;100.00
19210;BME280;9738;51.654;14.238;2023-02-21T07:24:12;100239.69;;;8.20;100.00
19210;BME280;9738;51.654;14.238;2023-02-21T07:26:39;100232.44;;;8.22;100.00
19210;BME280;9738;51.654;14.238;2023-02-21T07:29:05;100240.53;;;8.20;100.00
19210;BME280;9738;51.654;14.238;2023-02-21T07:31:31;100238.59;;;8.22;100.00
19210;BME280;9738;51.654;14.238;2023-02-21T07:33:57;100241.41;;;8.21;100.00
19210;BME280;9738;51.654;14.238;2023-02-21T07:36:23;100252.03;;;8.21;100.00
19210;BME280;9738;51.654;14.238;2023-02-21T07:38:48;100247.41;;;8.23;100.00
19210;BME280;9738;51.654;14.238;2023-02-21T07:41:15;100258.06;;;8.23;100.00
19210;BME280;9738;51.654;14.238;2023-02-21T07:43:41;100262.78;;;8.19;100.00
19210;BME280;9738;51.654;14.238;2023-02-21T07:46:12;100264.63;;;8.19;100.00
19210;BME280;9738;51.654;14.238;2023-02-21T07:48:38;100268.00;;;8.21;100.00
19210;BME280;9738;51.654;14.238;2023-02-21T07:51:08;100269.94;;;8.19;100.00
19210;BME280;9738;51.654;14.238;2023-02-21T07:53:34;100270.66;;;8.21;100.00
19210;BME280;9738;51.654;14.238;2023-02-21T07:56:02;100266.28;;;8.20;100.00
19210;BME280;9738;51.654;14.238;2023-02-21T07:58:28;100275.13;;;8.20;100.00
19210;BME280;9738;51.654;14.238;2023-02-21T08:00:54;100275.69;;;8.24;100.00
19210;BME280;9738;51.654;14.238;2023-02-21T08:03:21;100290.66;;;8.25;100.00
19210;BME280;9738;51.654;14.238;2023-02-21T08:05:47;100286.47;;;8.22;100.00
19210;BME280;9738;51.654;14.238;2023-02-21T08:08:14;100286.47;;;8.22;100.00
19210;BME280;9738;51.654;14.238;2023-02-21T08:10:40;100293.63;;;8.22;100.00
19210;BME280;9738;51.654;14.238;2023-02-21T08:13:06;100295.44;;;8.21;100.00
19210;BME280;9738;51.654;14.238;2023-02-21T08:15:32;100297.69;;;8.16;100.00
19210;BME280;9738;51.654;14.238;2023-02-21T08:17:58;100295.56;;;8.20;100.00
19210;BME280;9738;51.654;14.238;2023-02-21T08:20:24;100305.25;;;8.21;100.00
19210;BME280;9738;51.654;14.238;2023-02-21T08:22:49;100304.66;;;8.17;100.00
19210;BME280;9738;51.654;14.238;2023-02-21T08:25:16;100303.53;;;8.20;100.00
19210;BME280;9738;51.654;14.238;2023-02-21T08:27:42;100302.28;;;8.14;100.00
19210;BME280;9738;51.654;14.238;2023-02-21T08:30:10;100299.34;;;8.17;100.00
19210;BME280;9738;51.654;14.238;2023-02-21T08:32:37;100302.16;;;8.16;100.00
19210;BME280;9738;51.654;14.238;2023-02-21T08:35:03;100311.66;;;8.18;100.00
19210;BME280;9738;51.654;14.238;2023-02-21T08:37:31;100311.97;;;8.15;100.00
19210;BME280;9738;51.654;14.238;2023-02-21T08:39:58;100308.84;;;8.20;100.00
19210;BME280;9738;51.654;14.238;2023-02-21T08:42:24;100307.63;;;8.24;100.00
19210;BME280;9738;51.654;14.238;2023-02-21T08:44:50;100304.66;;;8.17;100.00
19210;BME280;9738;51.654;14.238;2023-02-21T08:47:17;100313.34;;;8.19;100.00
19210;BME280;9738;51.654;14.238;2023-02-21T08:49:43;100317.56;;;8.22;100.00
19210;BME280;9738;51.654;14.238;2023-02-21T08:52:13;100310.97;;;8.26;100.00
19210;BME280;9738;51.654;14.238;2023-02-21T08:54:42;100313.63;;;8.26;100.00
19210;BME280;9738;51.654;14.238;2023-02-21T08:57:08;100323.16;;;8.28;100.00
19210;BME280;9738;51.654;14.238;2023-02-21T08:59:34;100322.03;;;8.31;100.00
19210;BME280;9738;51.654;14.238;2023-02-21T09:02:02;100315.31;;;8.27;100.00
19210;BME280;9738;51.654;14.238;2023-02-21T09:04:28;100319.25;;;8.23;100.00
19210;BME280;9738;51.654;14.238;2023-02-21T09:06:55;100325.09;;;8.26;100.00
19210;BME280;9738;51.654;14.238;2023-02-21T09:09:21;100321.59;;;8.26;100.00
19210;BME280;9738;51.654;14.238;2023-02-21T09:11:47;100322.34;;;8.28;100.00
19210;BME280;9738;51.654;14.238;2023-02-21T09:14:14;100319.66;;;8.28;100.00
19210;BME280;9738;51.654;14.238;2023-02-21T09:16:41;100336.03;;;8.33;100.00
19210;BME280;9738;51.654;14.238;2023-02-21T09:19:08;100324.44;;;8.34;100.00
19210;BME280;9738;51.654;14.238;2023-02-21T09:21:34;100323.19;;;8.38;100.00
19210;BME280;9738;51.654;14.238;2023-02-21T09:24:01;100322.94;;;8.41;100.00
19210;BME280;9738;51.654;14.238;2023-02-21T09:26:30;100324.31;;;8.35;100.00
19210;BME280;9738;51.654;14.238;2023-02-21T09:28:58;100326.28;;;8.43;100.00
19210;BME280;9738;51.654;14.238;2023-02-21T09:31:24;100326.97;;;8.45;100.00
19210;BME280;9738;51.654;14.238;2023-02-21T09:33:50;100322.06;;;8.50;100.00
19210;BME280;9738;51.654;14.238;2023-02-21T09:36:16;100321.09;;;8.51;100.00
19210;BME280;9738;51.654;14.238;2023-02-21T09:38:51;100312.09;;;8.52;100.00
19210;BME280;9738;51.654;14.238;2023-02-21T09:41:18;100318.31;;;8.53;100.00
19210;BME280;9738;51.654;14.238;2023-02-21T09:43:45;100314.94;;;8.60;100.00
19210;BME280;9738;51.654;14.238;2023-02-21T09:49:01;100315.06;;;8.69;100.00
19210;BME280;9738;51.654;14.238;2023-02-21T09:51:30;100319.53;;;8.68;100.00
19210;BME280;9738;51.654;14.238;2023-02-21T09:53:57;100316.72;;;8.70;100.00
19210;BME280;9738;51.654;14.238;2023-02-21T09:58:50;100324.84;;;8.78;100.00
19210;BME280;9738;51.654;14.238;2023-02-21T10:07:10;100305.66;;;8.74;100.00
19210;BME280;9738;51.654;14.238;2023-02-21T10:09:56;100315.47;;;8.74;100.00
19210;BME280;9738;51.654;14.238;2023-02-21T10:12:31;100312.13;;;8.72;100.00
19210;BME280;9738;51.654;14.238;2023-02-21T10:15:41;100316.16;;;8.76;100.00
19210;BME280;9738;51.654;14.238;2023-02-21T10:18:31;100316.72;;;8.79;100.00
19210;BME280;9738;51.654;14.238;2023-02-21T10:21:02;100324.16;;;8.76;100.00
19210;BME280;9738;51.654;14.238;2023-02-21T10:23:39;100335.63;;;8.76;100.00
19210;BME280;9738;51.654;14.238;2023-02-21T10:26:13;100323.16;;;8.77;100.00
19210;BME280;9738;51.654;14.238;2023-02-21T10:28:40;100329.31;;;8.87;100.00
19210;BME280;9738;51.654;14.238;2023-02-21T10:31:10;100333.50;;;8.89;100.00
19210;BME280;9738;51.654;14.238;2023-02-21T10:33:38;100328.72;;;9.03;100.00
19210;BME280;9738;51.654;14.238;2023-02-21T10:36:17;100331.78;;;9.08;100.00
19210;BME280;9738;51.654;14.238;2023-02-21T10:38:57;100337.97;;;9.08;100.00
19210;BME280;9738;51.654;14.238;2023-02-21T10:41:26;100333.88;;;9.14;100.00
19210;BME280;9738;51.654;14.238;2023-02-21T10:44:00;100342.13;;;9.20;100.00
19210;BME280;9738;51.654;14.238;2023-02-21T10:46:39;100353.22;;;9.16;100.00
19210;BME280;9738;51.654;14.238;2023-02-21T10:49:34;100342.84;;;9.23;100.00
19210;BME280;9738;51.654;14.238;2023-02-21T10:52:10;100336.28;;;9.17;100.00
19210;BME280;9738;51.654;14.238;2023-02-21T10:54:37;100337.09;;;9.17;100.00
19210;BME280;9738;51.654;14.238;2023-02-21T10:57:06;100344.25;;;9.17;100.00
19210;BME280;9738;51.654;14.238;2023-02-21T10:59:35;100347.78;;;9.17;100.00
19210;BME280;9738;51.654;14.238;2023-02-21T11:02:24;100340.19;;;9.23;100.00
19210;BME280;9738;51.654;14.238;2023-02-21T11:04:52;100344.91;;;9.29;100.00
19210;BME280;9738;51.654;14.238;2023-02-21T11:07:20;100334.41;;;9.27;100.00
19210;BME280;9738;51.654;14.238;2023-02-21T11:09:48;100347.72;;;9.27;100.00
19210;BME280;9738;51.654;14.238;2023-02-21T11:12:16;100343.78;;;9.31;100.00
19210;BME280;9738;51.654;14.238;2023-02-21T11:15:04;100346.03;;;9.36;100.00
19210;BME280;9738;51.654;14.238;2023-02-21T11:17:31;100346.56;;;9.39;100.00
19210;BME280;9738;51.654;14.238;2023-02-21T11:25:02;100347.47;;;9.20;100.00
19210;BME280;9738;51.654;14.238;2023-02-21T11:27:32;100344.06;;;9.28;100.00
19210;BME280;9738;51.654;14.238;2023-02-21T11:30:00;100342.66;;;9.34;100.00
19210;BME280;9738;51.654;14.238;2023-02-21T11:32:33;100340.97;;;9.33;100.00
19210;BME280;9738;51.654;14.238;2023-02-21T11:35:02;100345.19;;;9.35;100.00
19210;BME280;9738;51.654;14.238;2023-02-21T11:37:29;100347.16;;;9.33;100.00
19210;BME280;9738;51.654;14.238;2023-02-21T11:39:56;100338.72;;;9.38;100.00
19210;BME280;9738;51.654;14.238;2023-02-21T11:42:31;100340.13;;;9.42;100.00
19210;BME280;9738;51.654;14.238;2023-02-21T11:45:19;100338.91;;;9.54;100.00
19210;BME280;9738;51.654;14.238;2023-02-21T11:47:56;100345.06;;;9.64;100.00
19210;BME280;9738;51.654;14.238;2023-02-21T11:50:29;100345.31;;;9.71;100.00
19210;BME280;9738;51.654;14.238;2023-02-21T11:53:06;100330.53;;;9.77;100.00
19210;BME280;9738;51.654;14.238;2023-02-21T11:55:53;100332.63;;;9.83;100.00
19210;BME280;9738;51.654;14.238;2023-02-21T11:58:30;100329.09;;;9.82;100.00
19210;BME280;9738;51.654;14.238;2023-02-21T12:01:24;100340.63;;;9.83;100.00
19210;BME280;9738;51.654;14.238;2023-02-21T12:07:07;100337.00;;;10.01;100.00
19210;BME280;9738;51.654;14.238;2023-02-21T12:14:59;100333.88;;;10.06;100.00
19210;BME280;9738;51.654;14.238;2023-02-21T12:23:25;100337.50;;;10.05;100.00
19210;BME280;9738;51.654;14.238;2023-02-21T12:26:11;100329.97;;;10.00;100.00
19210;BME280;9738;51.654;14.238;2023-02-21T12:29:08;100330.50;;;10.04;100.00
19210;BME280;9738;51.654;14.238;2023-02-21T12:31:52;100335.47;;;9.99;100.00
19210;BME280;9738;51.654;14.238;2023-02-21T12:40:26;100333.94;;;9.96;100.00
19210;BME280;9738;51.654;14.238;2023-02-21T12:43:26;100327.47;;;9.99;100.00
19210;BME280;9738;51.654;14.238;2023-02-21T12:46:16;100334.16;;;10.03;100.00
19210;BME280;9738;51.654;14.238;2023-02-21T12:49:12;100328.44;;;9.98;100.00
19210;BME280;9738;51.654;14.238;2023-02-21T12:51:54;100330.91;;;10.09;100.00
19210;BME280;9738;51.654;14.238;2023-02-21T12:54:44;100321.50;;;10.05;100.00
19210;BME280;9738;51.654;14.238;2023-02-21T12:57:15;100333.56;;;10.09;100.00
19210;BME280;9738;51.654;14.238;2023-02-21T13:02:49;100327.63;;;10.15;100.00
19210;BME280;9738;51.654;14.238;2023-02-21T13:05:22;100323.44;;;10.13;100.00
19210;BME280;9738;51.654;14.238;2023-02-21T13:07:57;100330.47;;;10.14;100.00
19210;BME280;9738;51.654;14.238;2023-02-21T13:10:30;100322.84;;;10.19;100.00
19210;BME280;9738;51.654;14.238;2023-02-21T13:13:03;100318.34;;;10.19;100.00
19210;BME280;9738;51.654;14.238;2023-02-21T13:15:34;100325.91;;;10.24;100.00
19210;BME280;9738;51.654;14.238;2023-02-21T13:18:16;100328.63;;;10.14;100.00
19210;BME280;9738;51.654;14.238;2023-02-21T13:20:51;100327.72;;;10.06;100.00
19210;BME280;9738;51.654;14.238;2023-02-21T13:28:40;100331.34;;;9.87;100.00
19210;BME280;9738;51.654;14.238;2023-02-21T13:31:25;100325.59;;;9.82;100.00
19210;BME280;9738;51.654;14.238;2023-02-21T13:33:54;100326.72;;;9.79;100.00
19210;BME280;9738;51.654;14.238;2023-02-21T13:36:40;100327.56;;;9.80;100.00
19210;BME280;9738;51.654;14.238;2023-02-21T13:39:15;100332.53;;;9.74;100.00
19210;BME280;9738;51.654;14.238;2023-02-21T13:41:50;100329.47;;;9.69;100.00
19210;BME280;9738;51.654;14.238;2023-02-21T13:47:02;100335.22;;;9.65;100.00
19210;BME280;9738;51.654;14.238;2023-02-21T13:57:45;100354.06;;;9.63;100.00
19210;BME280;9738;51.654;14.238;2023-02-21T14:05:19;100347.53;;;9.48;100.00
19210;BME280;9738;51.654;14.238;2023-02-21T14:08:03;100343.47;;;9.44;100.00
19210;BME280;9738;51.654;14.238;2023-02-21T14:10:45;100349.47;;;9.46;100.00
19210;BME280;9738;51.654;14.238;2023-02-21T14:13:23;100352.00;;;9.47;100.00
19210;BME280;9738;51.654;14.238;2023-02-21T14:15:59;100352.44;;;9.43;100.00
19210;BME280;9738;51.654;14.238;2023-02-21T14:21:42;100351.06;;;9.39;100.00
19210;BME280;9738;51.654;14.238;2023-02-21T14:29:35;100355.56;;;9.29;100.00
19210;BME280;9738;51.654;14.238;2023-02-21T14:34:41;100353.72;;;9.39;100.00
19210;BME280;9738;51.654;14.238;2023-02-21T14:37:41;100349.97;;;9.32;100.00
19210;BME280;9738;51.654;14.238;2023-02-21T14:40:28;100353.88;;;9.28;100.00
19210;BME280;9738;51.654;14.238;2023-02-21T14:43:18;100356.19;;;9.13;100.00
19210;BME280;9738;51.654;14.238;2023-02-21T14:46:09;100362.91;;;9.07;100.00
19210;BME280;9738;51.654;14.238;2023-02-21T14:51:58;100362.13;;;8.97;100.00
19210;BME280;9738;51.654;14.238;2023-02-21T14:57:41;100361.28;;;8.87;100.00
19210;BME280;9738;51.654;14.238;2023-02-21T15:02:49;100367.59;;;8.86;100.00
19210;BME280;9738;51.654;14.238;2023-02-21T15:05:29;100371.09;;;8.86;100.00
19210;BME280;9738;51.654;14.238;2023-02-21T15:08:26;100371.09;;;8.86;100.00
19210;BME280;9738;51.654;14.238;2023-02-21T15:10:57;100377.25;;;8.87;100.00
19210;BME280;9738;51.654;14.238;2023-02-21T15:13:26;100377.69;;;8.82;100.00